Snake River Valley :: PerryA1

liberation: 2021-10-02  08:00     latitude: 41.485500     longitude: -112.055862 40 birds
# LOFT PRING MILES ARRIVAL SPEED ToWin
1 M&T Wall AU21-SRV-0370 148.652 2021-10-02 11:01:47.009 1439.226 00:00:00
2 M&T Wall AU21-SRV-0371 148.652 2021-10-02 11:01:48.910 1438.976 00:00:02
3 M&T Wall AU21-SRV-0006 148.652 2021-10-02 11:01:49.680 1438.874 00:00:03
4 M&T Wall AU21-SRV-0004 148.652 2021-10-02 11:01:50.172 1438.809 00:00:03
5 M&T Wall AU21-SRV-0357 148.652 2021-10-02 11:01:50.916 1438.711 00:00:04
6 M&T Wall AU21-SRV-0003 148.652 2021-10-02 11:01:51.438 1438.642 00:00:04
7 M&T Wall AU21-SRV-0038 148.652 2021-10-02 11:01:51.571 1438.625 00:00:05
8 M&T Wall AU21-SRV-0045 148.652 2021-10-02 11:01:51.943 1438.576 00:00:05
9 M&T Wall AU21-SRV-0034 148.652 2021-10-02 11:01:52.191 1438.543 00:00:05
10 M&T Wall AU21-SRV-0007 148.652 2021-10-02 11:01:53.354 1438.390 00:00:06
11 M&T Wall AU21-SRV-0020 148.652 2021-10-02 11:01:54.114 1438.290 00:00:07
12 M&T Wall AU21-SRV-0016 148.652 2021-10-02 11:01:54.757 1438.205 00:00:08
13 M&T Wall AU21-SRV-0019 148.652 2021-10-02 11:01:55.273 1438.137 00:00:08
14 M&T Wall AU21-SRV-0033 148.652 2021-10-02 11:01:55.414 1438.118 00:00:08
15 M&T Wall AU21-SRV-0037 148.652 2021-10-02 11:01:58.365 1437.730 00:00:11
16 M&T Wall AU21-SRV-0050 148.652 2021-10-02 11:01:59.293 1437.607 00:00:12
17 M&T Wall AU21-SRV-0021 148.652 2021-10-02 11:02:14.659 1435.587 00:00:28
18 M&T Wall AU21-SRV-0025 148.652 2021-10-02 11:03:27.937 1426.031 00:01:41
19 M&T Wall AU21-SRV-0039 148.652 2021-10-02 11:03:30.771 1425.664 00:01:44
20 M&T Wall AU21-SRV-0023 148.652 2021-10-02 11:04:21.611 1419.111 00:02:35
21 M&T Wall AU21-SRV-0036 148.652 2021-10-02 11:10:59.177 1369.876 00:09:12
22 M&T Wall AU21-SRV-0013 148.652 2021-10-02 11:11:01.229 1369.631 00:09:14
23 M&T Wall AU21-SRV-0022 148.652 2021-10-02 11:11:02.434 1369.487 00:09:15
24 M&T Wall AU21-SRV-0049 148.652 2021-10-02 11:11:03.850 1369.318 00:09:17
25 Acorn Loft AU21-ARPU-1727 137.391 2021-10-02 10:59:43.178 1345.474 00:11:42
26 Acorn Loft AU21-ARPU-1725 137.391 2021-10-02 10:59:48.285 1344.838 00:11:48
27 Acorn Loft AU21-ARPU-1717 137.391 2021-10-02 11:07:03.882 1292.645 00:19:03
28 Acorn Loft AU21-ARPU-1722 137.391 2021-10-02 11:09:20.979 1277.046 00:21:20
AU21-SRV-0203 0 0000-00-00 00:00:00.000 0.000 00:00:00
AU21-SRV-0204 0 0000-00-00 00:00:00.000 0.000 00:00:00
AU21-SRV-0205 0 0000-00-00 00:00:00.000 0.000 00:00:00
AU21-SRV-0207 0 0000-00-00 00:00:00.000 0.000 00:00:00
AU21-SRV-0209 0 0000-00-00 00:00:00.000 0.000 00:00:00
AU21-SRV-0211 0 0000-00-00 00:00:00.000 0.000 00:00:00
AU21-SRV-0212 0 0000-00-00 00:00:00.000 0.000 00:00:00
AU21-SRV-0214 0 0000-00-00 00:00:00.000 0.000 00:00:00
AU21-SRV-0227 0 0000-00-00 00:00:00.000 0.000 00:00:00
AU21-SRV-0238 0 0000-00-00 00:00:00.000 0.000 00:00:00
AU21-SRV-0241 0 0000-00-00 00:00:00.000 0.000 00:00:00
M&T Wall AU21-SRV-0011 0 0000-00-00 00:00:00.000 0.000 00:00:00